Portada
METAR-TAF:

METAR-TAF

Aeropuertos :

Ulán Bator, Mongolia

Aeropuerto Internacional Gengis Kan

latitud: 47-55N, longitud: 106-52E, altitud: 1306 m

Observación

El informe se hizo hace 28 minutos, a las 01:00 UTC
Viento calma
Temperatura -39°C
Humedad 65%
Presión 1024 hPa
Visibilidad: 8000 m

METAR: ZMUB 240100Z 00000MPS 8000NW NSC M39/M43 Q1024 NOSIG RMK QFE660.2 58 NW MO

Hora: 09:28 (01:28 UTC)

Pronóstico

El informe se hizo hace 2 horas y 58 minutos, a las 22:30 UTC
Pronóstico válido del 24 a las 00 UTC al 25 a las 06 UTC
Viento 4 kt con dirección variable
Visibilidad: 6000 m
Nubes dispersas a una altura de 10000 ft
Evolucionando progresivamente
del 24 a las 23 UTC al 25 a las 01 UTC
Visibilidad: 3000 m
humo

TAF: ZMUB 232230Z 2400/2506 VRB02MPS 6000 SCT100 TXM24/2407Z TNM38/2423Z BECMG 2423/2501 3000 FU

Observaciones y pronósticos meteorológicos de más de 4000 aeropuertos (mensajes METAR y TAF).

Los puntos amarillos y rojos representan las estaciones disponibles.

Ponga el ratón en el punto deseado para ver el nombre de la estación.

Haga clic para ver las observaciones y los pronósticos meteorológicos.

Para cambiar el mapa : haga clic en los botones verdes con una cruz de color negro para hacer un zoom, en el botón verde con un guión para alejar o en las flechas verdes para mapas adyacentes.


METAR-TAF: